createdAt,value
2022-12-20T00:02:52.558Z,8.38
2022-12-20T00:06:36.290Z,10.77
2022-12-20T00:10:18.137Z,15.82
2022-12-20T00:14:00.139Z,11.77
2022-12-20T00:17:41.998Z,15.93
2022-12-20T00:21:23.948Z,15.85
2022-12-20T00:25:06.538Z,12.30
2022-12-20T00:28:49.467Z,13.07
2022-12-20T00:32:40.611Z,10.07
2022-12-20T00:36:27.287Z,8.70
2022-12-20T00:40:12.925Z,6.93
2022-12-20T00:43:55.550Z,5.35
2022-12-20T00:47:37.759Z,5.95
2022-12-20T00:51:30.285Z,5.75
2022-12-20T00:55:23.192Z,6.53
2022-12-20T00:59:05.160Z,6.88
2022-12-20T01:02:48.355Z,9.32
2022-12-20T01:10:23.393Z,14.55
2022-12-20T01:14:16.346Z,13.57
2022-12-20T01:17:58.182Z,16.33
2022-12-20T01:21:50.526Z,14.82
2022-12-20T01:25:34.919Z,10.15
2022-12-20T01:29:17.093Z,11.40
2022-12-20T01:32:59.504Z,19.33
2022-12-20T01:36:44.389Z,11.83
2022-12-20T01:40:27.138Z,14.68
2022-12-20T01:44:21.186Z,15.18
2022-12-20T01:48:07.424Z,14.70
2022-12-20T01:52:18.606Z,17.52
2022-12-20T01:56:12.779Z,18.30
2022-12-20T01:59:56.321Z,10.48
2022-12-20T02:03:40.650Z,10.23
2022-12-20T02:07:27.001Z,9.52
2022-12-20T02:11:34.822Z,7.07
2022-12-20T02:15:29.256Z,8.02
2022-12-20T02:19:35.669Z,6.72
2022-12-20T02:23:53.684Z,6.97
2022-12-20T02:27:53.363Z,7.10
2022-12-20T02:31:47.717Z,4.55
2022-12-20T02:35:34.855Z,7.15
2022-12-20T02:39:17.458Z,5.40
2022-12-20T02:43:02.818Z,3.78
2022-12-20T02:46:45.783Z,3.25
2022-12-20T02:50:50.889Z,2.55
2022-12-20T02:54:33.307Z,4.70
2022-12-20T02:58:29.580Z,6.40
2022-12-20T03:02:12.802Z,6.53
2022-12-20T03:09:40.067Z,1.92
2022-12-20T03:13:25.709Z,3.20
2022-12-20T03:17:08.509Z,1.42
2022-12-20T03:20:50.443Z,0.98
2022-12-20T03:24:32.752Z,1.20
2022-12-20T03:28:14.557Z,2.00
2022-12-20T03:31:56.290Z,1.10
2022-12-20T03:35:38.121Z,1.27
2022-12-20T03:39:19.920Z,1.60
2022-12-20T03:43:01.642Z,1.10
2022-12-20T03:46:43.417Z,1.60
2022-12-20T03:50:25.195Z,2.25
2022-12-20T03:54:07.625Z,2.80
2022-12-20T03:57:49.339Z,2.23
2022-12-20T04:01:31.204Z,1.95
2022-12-20T04:05:13.154Z,1.33
2022-12-20T04:08:55.031Z,1.67
2022-12-20T04:12:36.894Z,1.98
2022-12-20T04:16:20.961Z,2.85
2022-12-20T04:20:18.969Z,3.13
2022-12-20T04:24:02.410Z,3.53
2022-12-20T04:27:44.208Z,2.97
2022-12-20T04:31:26.089Z,3.45
2022-12-20T04:35:08.520Z,3.72
2022-12-20T04:38:50.272Z,2.40
2022-12-20T04:42:33.172Z,2.63
2022-12-20T04:46:14.924Z,2.13
2022-12-20T04:49:56.691Z,2.65
2022-12-20T04:53:50.846Z,3.22
2022-12-20T04:57:32.778Z,2.17
2022-12-20T05:01:14.604Z,1.42
2022-12-20T05:04:56.382Z,1.65
2022-12-20T05:08:38.470Z,3.45
2022-12-20T05:12:20.246Z,3.10
2022-12-20T05:16:02.837Z,2.50
2022-12-20T05:19:45.465Z,1.98
2022-12-20T05:23:46.012Z,4.90
2022-12-20T05:27:30.483Z,3.03
2022-12-20T05:31:12.449Z,3.92
2022-12-20T05:34:54.169Z,5.60
2022-12-20T05:38:36.498Z,2.40
2022-12-20T05:42:18.187Z,5.40
2022-12-20T05:46:00.374Z,9.32
2022-12-20T05:49:42.079Z,3.58
2022-12-20T05:53:24.214Z,5.80
2022-12-20T05:57:05.949Z,6.22
2022-12-20T06:04:38.874Z,6.38
2022-12-20T06:08:21.387Z,7.27
2022-12-20T06:12:03.228Z,7.37
2022-12-20T06:15:45.252Z,6.32
2022-12-20T06:19:27.008Z,4.93
2022-12-20T06:23:09.685Z,4.85
2022-12-20T06:26:52.077Z,4.85
2022-12-20T06:30:34.694Z,6.22
2022-12-20T06:34:17.208Z,6.83
2022-12-20T06:37:59.019Z,8.00
2022-12-20T06:41:41.657Z,6.75
2022-12-20T06:45:23.404Z,9.00
2022-12-20T06:49:05.163Z,6.45
2022-12-20T06:52:46.995Z,5.35
2022-12-20T06:56:28.703Z,8.75
2022-12-20T07:00:12.708Z,12.90
2022-12-20T07:03:54.541Z,6.95
2022-12-20T07:07:44.348Z,6.80
2022-12-20T07:11:28.740Z,4.57
2022-12-20T07:15:13.409Z,6.10
2022-12-20T07:18:57.962Z,5.10
2022-12-20T07:22:42.159Z,5.68
2022-12-20T07:30:21.767Z,6.65
2022-12-20T07:34:06.500Z,5.93
2022-12-20T07:37:48.489Z,10.57
2022-12-20T07:41:30.503Z,7.03
2022-12-20T07:45:12.611Z,8.20
2022-12-20T07:48:54.601Z,9.60
2022-12-20T07:52:37.826Z,7.38
2022-12-20T07:56:22.616Z,10.63
2022-12-20T08:00:05.622Z,14.63
2022-12-20T08:03:52.384Z,11.30
2022-12-20T08:07:34.947Z,9.60
2022-12-20T08:15:08.056Z,7.22
2022-12-20T08:18:50.103Z,6.35
2022-12-20T08:22:32.075Z,8.90
2022-12-20T08:38:28.154Z,6.53
2022-12-20T08:58:15.705Z,9.05
2022-12-20T09:01:57.827Z,6.30
2022-12-20T09:19:07.094Z,8.20
2022-12-20T09:22:49.116Z,7.60
2022-12-20T09:26:38.312Z,9.02
2022-12-20T09:30:20.413Z,11.07
2022-12-20T09:34:05.856Z,8.25
2022-12-20T09:41:59.752Z,10.65
2022-12-20T09:45:42.650Z,11.82
2022-12-20T09:49:31.873Z,7.60
2022-12-20T09:53:19.927Z,12.38
2022-12-20T09:57:30.822Z,12.95
2022-12-20T10:01:31.225Z,10.55
2022-12-20T10:05:25.502Z,16.13
2022-12-20T10:09:47.364Z,11.30
2022-12-20T10:13:46.789Z,12.13
2022-12-20T10:17:37.815Z,21.10
2022-12-20T10:21:53.986Z,10.18
2022-12-20T10:25:38.473Z,16.20
2022-12-20T10:29:21.356Z,14.32
2022-12-20T10:33:06.029Z,12.55
2022-12-20T10:51:24.844Z,12.85
2022-12-20T10:55:35.553Z,13.50
2022-12-20T10:59:17.738Z,15.45
2022-12-20T11:06:56.242Z,8.45
2022-12-20T11:10:38.285Z,13.32
2022-12-20T11:14:20.811Z,20.75
2022-12-20T11:18:09.297Z,14.23
2022-12-20T11:22:07.881Z,12.38
2022-12-20T11:26:11.559Z,12.77
2022-12-20T11:30:27.754Z,17.40
2022-12-20T11:34:37.859Z,24.05
2022-12-20T11:38:28.852Z,17.52
2022-12-20T11:42:34.202Z,20.33
2022-12-20T11:46:47.772Z,12.82
2022-12-20T11:50:49.447Z,11.45
2022-12-20T11:55:07.631Z,19.10
2022-12-20T11:59:01.244Z,20.20
2022-12-20T12:06:48.635Z,14.68
2022-12-20T12:10:37.608Z,22.40
2022-12-20T12:14:43.304Z,16.35
2022-12-20T12:18:29.472Z,20.25
2022-12-20T12:22:17.560Z,19.00
2022-12-20T12:26:05.839Z,22.52
2022-12-20T12:29:48.055Z,20.05
2022-12-20T12:33:41.097Z,13.55
2022-12-20T12:37:49.961Z,18.50
2022-12-20T12:41:59.308Z,23.05
2022-12-20T12:45:48.808Z,19.65
2022-12-20T12:49:34.672Z,12.98
2022-12-20T12:57:18.841Z,20.20
2022-12-20T13:01:11.074Z,13.50
2022-12-20T13:05:25.973Z,13.55
2022-12-20T13:09:08.584Z,14.88
2022-12-20T13:12:50.642Z,14.90
2022-12-20T13:20:35.891Z,16.90
2022-12-20T13:24:46.617Z,21.73
2022-12-20T13:28:28.635Z,15.98
2022-12-20T13:32:47.907Z,14.55
2022-12-20T13:36:36.242Z,17.55
2022-12-20T13:40:37.088Z,21.60
2022-12-20T13:44:35.628Z,14.57
2022-12-20T13:48:26.499Z,19.98
2022-12-20T13:52:11.464Z,14.57
2022-12-20T13:55:54.611Z,21.58
2022-12-20T13:59:36.891Z,18.58
2022-12-20T14:03:25.826Z,15.02
2022-12-20T14:07:13.384Z,21.95
2022-12-20T14:10:55.398Z,14.82
2022-12-20T14:14:39.411Z,13.27
2022-12-20T14:18:25.854Z,19.05
2022-12-20T14:22:12.551Z,22.23
2022-12-20T14:25:59.995Z,15.70
2022-12-20T14:29:45.116Z,19.20
2022-12-20T14:33:32.053Z,18.45
2022-12-20T14:37:37.468Z,16.13
2022-12-20T14:41:40.977Z,14.88
2022-12-20T14:45:26.236Z,16.42
2022-12-20T14:49:34.857Z,22.85
2022-12-20T14:53:21.905Z,16.42
2022-12-20T14:57:03.901Z,20.83
2022-12-20T15:01:03.795Z,20.40
2022-12-20T15:04:45.603Z,20.88
2022-12-20T15:08:28.612Z,21.98
2022-12-20T15:12:10.487Z,25.33
2022-12-20T15:15:52.432Z,22.23
2022-12-20T15:19:40.405Z,24.48
2022-12-20T15:23:24.462Z,19.95
2022-12-20T15:27:12.246Z,21.35
2022-12-20T15:30:55.306Z,20.52
2022-12-20T15:34:38.629Z,22.23
2022-12-20T15:38:47.779Z,20.10
2022-12-20T15:42:27.861Z,16.80
2022-12-20T15:46:10.654Z,23.88
2022-12-20T15:49:52.805Z,21.13
2022-12-20T15:53:34.761Z,17.23
2022-12-20T15:57:16.642Z,13.48
2022-12-20T16:01:00.940Z,17.35
2022-12-20T16:04:42.647Z,18.67
2022-12-20T16:08:24.850Z,18.23
2022-12-20T16:12:23.151Z,19.33
2022-12-20T16:16:06.874Z,21.98
2022-12-20T16:19:48.953Z,16.50
2022-12-20T16:23:30.825Z,15.68
2022-12-20T16:27:12.639Z,18.48
2022-12-20T16:30:54.365Z,19.35
2022-12-20T16:34:36.149Z,19.63
2022-12-20T16:38:18.187Z,25.25
2022-12-20T16:42:01.569Z,22.85
2022-12-20T16:45:43.271Z,20.13
2022-12-20T16:49:25.142Z,22.02
2022-12-20T16:53:09.686Z,17.10
2022-12-20T16:56:55.519Z,18.77
2022-12-20T17:00:37.420Z,18.60
2022-12-20T17:04:20.503Z,23.10
2022-12-20T17:08:03.436Z,18.20
2022-12-20T17:11:45.508Z,17.55
2022-12-20T17:15:30.524Z,22.30
2022-12-20T17:19:13.833Z,18.92
2022-12-20T17:26:55.523Z,16.58
2022-12-20T17:30:43.092Z,21.60
2022-12-20T17:34:28.500Z,24.17
2022-12-20T17:38:10.183Z,17.20
2022-12-20T17:41:54.020Z,18.08
2022-12-20T17:45:36.457Z,26.08
2022-12-20T17:49:19.869Z,20.75
2022-12-20T17:53:02.787Z,20.52
2022-12-20T17:56:44.992Z,21.70
2022-12-20T18:00:36.570Z,24.73
2022-12-20T18:04:23.737Z,23.95
2022-12-20T18:08:05.962Z,16.92
2022-12-20T18:11:48.517Z,18.45
2022-12-20T18:15:30.286Z,17.47
2022-12-20T18:19:17.266Z,21.02
2022-12-20T18:23:01.795Z,17.17
2022-12-20T18:26:45.069Z,19.35
2022-12-20T18:30:29.384Z,26.88
2022-12-20T18:34:11.163Z,25.02
2022-12-20T18:37:53.098Z,24.73
2022-12-20T18:41:35.250Z,19.48
2022-12-20T18:45:18.136Z,28.05
2022-12-20T18:49:06.422Z,22.92
2022-12-20T18:52:48.252Z,25.73
2022-12-20T18:56:33.033Z,31.27
2022-12-20T19:00:15.435Z,23.88
2022-12-20T19:03:57.376Z,26.65
2022-12-20T19:07:39.236Z,40.72
2022-12-20T19:11:25.537Z,26.13
2022-12-20T19:15:09.925Z,25.52
2022-12-20T19:19:03.816Z,22.50
2022-12-20T19:22:45.984Z,20.02
2022-12-20T19:26:28.715Z,25.00
2022-12-20T19:30:11.088Z,23.33
2022-12-20T19:33:55.614Z,41.03
2022-12-20T19:37:37.832Z,85.18
2022-12-20T19:41:20.075Z,103.45
2022-12-20T19:45:01.826Z,81.13
2022-12-20T19:48:43.662Z,53.90
2022-12-20T19:52:28.683Z,42.30
2022-12-20T19:56:13.049Z,47.03
2022-12-20T19:59:56.123Z,43.55
2022-12-20T20:07:20.440Z,19.75
2022-12-20T20:11:09.380Z,21.27
2022-12-20T20:14:52.816Z,26.73
2022-12-20T20:18:36.833Z,28.73
2022-12-20T20:22:22.844Z,21.52
2022-12-20T20:26:14.811Z,21.20
2022-12-20T20:29:56.853Z,22.70
2022-12-20T20:33:38.951Z,21.63
2022-12-20T20:37:20.721Z,30.95
2022-12-20T20:41:02.596Z,22.90
2022-12-20T20:44:44.707Z,21.92
2022-12-20T20:48:26.398Z,29.92
2022-12-20T20:52:08.187Z,18.77
2022-12-20T20:55:50.968Z,23.63
2022-12-20T20:59:32.743Z,24.58
2022-12-20T21:03:15.486Z,20.05
2022-12-20T21:06:57.573Z,20.17
2022-12-20T21:10:39.397Z,18.02
2022-12-20T21:14:36.486Z,21.25
2022-12-20T21:18:23.567Z,20.95
2022-12-20T21:22:05.365Z,23.23
2022-12-20T21:25:56.258Z,20.23
2022-12-20T21:29:38.036Z,33.58
2022-12-20T21:33:21.811Z,19.33
2022-12-20T21:37:03.869Z,19.85
2022-12-20T21:40:45.662Z,21.17
2022-12-20T21:44:27.411Z,18.02
2022-12-20T21:48:09.202Z,22.40
2022-12-20T21:51:50.910Z,25.13
2022-12-20T21:55:32.605Z,23.52
2022-12-20T21:59:14.509Z,22.52
2022-12-20T22:02:56.351Z,22.67
2022-12-20T22:06:38.230Z,15.65
2022-12-20T22:10:19.944Z,21.10
2022-12-20T22:14:03.247Z,24.65
2022-12-20T22:17:45.058Z,20.65
2022-12-20T22:21:30.423Z,18.48
2022-12-20T22:25:12.292Z,18.70
2022-12-20T22:29:03.274Z,20.75
2022-12-20T22:32:45.519Z,29.23
2022-12-20T22:36:27.666Z,25.33
2022-12-20T22:40:09.996Z,20.05
2022-12-20T22:43:52.936Z,30.60
2022-12-20T22:47:35.548Z,15.85
2022-12-20T22:51:23.351Z,24.13
2022-12-20T22:55:05.671Z,17.83
2022-12-20T22:58:48.562Z,23.15
2022-12-20T23:02:30.529Z,18.48
2022-12-20T23:06:14.705Z,20.33
2022-12-20T23:10:02.523Z,16.98
2022-12-20T23:14:04.300Z,22.45
2022-12-20T23:17:49.529Z,18.55
2022-12-20T23:21:49.989Z,23.48
2022-12-20T23:25:31.718Z,21.67
2022-12-20T23:29:14.267Z,14.05
2022-12-20T23:32:56.281Z,21.73
2022-12-20T23:36:38.087Z,17.35
2022-12-20T23:40:19.902Z,14.77
2022-12-20T23:44:04.025Z,21.60
2022-12-20T23:47:45.721Z,22.38
2022-12-20T23:51:27.467Z,16.90
2022-12-20T23:55:09.642Z,15.55
2022-12-20T23:58:54.923Z,20.85
